createdAt,value
2022-11-29T00:00:52.378Z,95629.94
2022-11-29T00:03:19.910Z,95631.53
2022-11-29T00:05:47.413Z,95627.94
2022-11-29T00:08:16.221Z,95639.47
2022-11-29T00:10:43.668Z,95631.53
2022-11-29T00:13:11.144Z,95629.84
2022-11-29T00:15:39.381Z,95629.69
2022-11-29T00:18:08.313Z,95630.94
2022-11-29T00:20:36.170Z,95633.34
2022-11-29T00:23:03.667Z,95637.72
2022-11-29T00:25:32.440Z,95632.66
2022-11-29T00:27:59.899Z,95634.22
2022-11-29T00:30:27.408Z,95629.84
2022-11-29T00:32:54.882Z,95636.25
2022-11-29T00:35:22.387Z,95634.47
2022-11-29T00:37:49.883Z,95647.22
2022-11-29T00:40:17.519Z,95633.59
2022-11-29T00:42:46.315Z,95639.00
2022-11-29T00:45:13.786Z,95633.84
2022-11-29T00:47:41.243Z,95647.41
2022-11-29T00:50:09.303Z,95644.25
2022-11-29T00:52:36.733Z,95644.72
2022-11-29T00:55:04.372Z,95632.59
2022-11-29T00:57:31.811Z,95630.44
2022-11-29T01:00:00.816Z,95627.50
2022-11-29T01:02:28.346Z,95630.53
2022-11-29T01:04:55.776Z,95639.66
2022-11-29T01:07:23.257Z,95630.13
2022-11-29T01:09:50.834Z,95626.97
2022-11-29T01:12:18.297Z,95636.31
2022-11-29T01:14:45.974Z,95634.09
2022-11-29T01:17:15.397Z,95646.44
2022-11-29T01:19:47.852Z,95650.03
2022-11-29T01:22:18.484Z,95644.97
2022-11-29T01:24:46.164Z,95638.13
2022-11-29T01:27:13.793Z,95649.34
2022-11-29T01:29:41.411Z,95641.16
2022-11-29T01:32:08.953Z,95653.88
2022-11-29T01:34:38.221Z,95646.88
2022-11-29T01:37:05.794Z,95651.38
2022-11-29T01:39:33.342Z,95667.81
2022-11-29T01:42:02.150Z,95660.25
2022-11-29T01:45:02.693Z,95666.88
2022-11-29T01:47:31.005Z,95664.19
2022-11-29T01:50:00.452Z,95662.41
2022-11-29T01:52:30.895Z,95656.88
2022-11-29T01:55:02.845Z,95632.22
2022-11-29T01:57:32.044Z,95663.41
2022-11-29T02:00:07.638Z,95639.22
2022-11-29T02:02:39.369Z,95668.69
2022-11-29T02:05:09.590Z,95677.00
2022-11-29T02:07:38.266Z,95665.88
2022-11-29T02:10:07.845Z,95670.97
2022-11-29T02:12:45.421Z,95658.34
2022-11-29T02:15:28.811Z,95668.25
2022-11-29T02:18:22.263Z,95666.81
2022-11-29T02:21:11.945Z,95665.09
2022-11-29T02:24:05.012Z,95666.00
2022-11-29T02:27:00.345Z,95669.72
2022-11-29T02:30:02.212Z,95663.22
2022-11-29T02:33:06.768Z,95665.78
2022-11-29T02:35:53.318Z,95667.59
2022-11-29T02:38:43.572Z,95647.22
2022-11-29T02:41:26.225Z,95661.97
2022-11-29T02:44:19.407Z,95649.28
2022-11-29T02:46:57.035Z,95662.41
2022-11-29T02:49:42.580Z,95661.53
2022-11-29T02:52:17.716Z,95661.97
2022-11-29T02:54:49.385Z,95667.94
2022-11-29T02:57:24.584Z,95658.25
2022-11-29T03:00:01.031Z,95657.38
2022-11-29T03:02:35.969Z,95680.53
2022-11-29T03:05:13.560Z,95678.03
2022-11-29T03:07:47.364Z,95680.06
2022-11-29T03:10:24.366Z,95682.63
2022-11-29T03:12:54.615Z,95695.81
2022-11-29T03:15:29.809Z,95680.63
2022-11-29T03:18:17.480Z,95677.03
2022-11-29T03:21:05.045Z,95687.81
2022-11-29T03:23:38.615Z,95702.88
2022-11-29T03:26:09.575Z,95687.25
2022-11-29T03:28:40.907Z,95706.03
2022-11-29T03:31:16.325Z,95709.19
2022-11-29T03:33:50.602Z,95711.13
2022-11-29T03:36:30.502Z,95697.94
2022-11-29T03:39:04.418Z,95711.56
2022-11-29T03:41:36.138Z,95707.19
2022-11-29T03:44:13.017Z,95707.75
2022-11-29T03:46:48.814Z,95715.53
2022-11-29T03:49:22.684Z,95718.31
2022-11-29T03:52:01.563Z,95717.66
2022-11-29T03:54:36.493Z,95739.38
2022-11-29T03:57:04.477Z,95736.00
2022-11-29T03:59:46.249Z,95726.44
2022-11-29T04:02:52.375Z,95732.75
2022-11-29T04:05:58.299Z,95731.94
2022-11-29T04:08:49.357Z,95735.44
2022-11-29T04:11:54.664Z,95735.66
2022-11-29T04:14:38.958Z,95723.19
2022-11-29T04:17:30.377Z,95729.94
2022-11-29T04:20:11.284Z,95726.19
2022-11-29T04:23:09.734Z,95718.31
2022-11-29T04:26:27.765Z,95738.25
2022-11-29T04:29:17.873Z,95732.06
2022-11-29T04:32:03.115Z,95719.66
2022-11-29T04:34:51.132Z,95735.88
2022-11-29T04:37:39.324Z,95732.41
2022-11-29T04:40:30.043Z,95750.28
2022-11-29T04:43:22.128Z,95756.47
2022-11-29T04:46:40.111Z,95767.81
2022-11-29T04:49:24.360Z,95756.13
2022-11-29T04:52:10.367Z,95756.34
2022-11-29T04:54:46.084Z,95768.94
2022-11-29T04:57:23.644Z,95770.53
2022-11-29T04:59:58.742Z,95770.97
2022-11-29T05:02:35.765Z,95771.22
2022-11-29T05:05:14.859Z,95764.66
2022-11-29T05:07:49.036Z,95768.63
2022-11-29T05:10:26.141Z,95772.66
2022-11-29T05:13:00.491Z,95777.16
2022-11-29T05:15:53.087Z,95780.09
2022-11-29T05:18:28.906Z,95784.16
2022-11-29T05:21:06.045Z,95785.50
2022-11-29T05:23:49.311Z,95786.72
2022-11-29T05:26:23.630Z,95782.34
2022-11-29T05:28:59.498Z,95786.50
2022-11-29T05:31:46.533Z,95781.31
2022-11-29T05:34:37.134Z,95786.19
2022-11-29T05:37:16.195Z,95779.44
2022-11-29T05:39:58.259Z,95786.16
2022-11-29T05:42:39.388Z,95789.34
2022-11-29T05:45:15.342Z,95788.66
2022-11-29T05:47:51.054Z,95798.56
2022-11-29T05:50:24.506Z,95789.88
2022-11-29T05:52:58.716Z,95800.59
2022-11-29T05:55:40.767Z,95802.81
2022-11-29T05:58:17.477Z,95805.09
2022-11-29T06:00:51.077Z,95811.72
2022-11-29T06:03:30.896Z,95808.56
2022-11-29T06:06:02.639Z,95803.50
2022-11-29T06:08:37.802Z,95799.69
2022-11-29T06:11:14.134Z,95803.63
2022-11-29T06:13:52.225Z,95813.97
2022-11-29T06:16:43.580Z,95814.44
2022-11-29T06:19:42.236Z,95821.63
2022-11-29T06:22:25.530Z,95821.63
2022-11-29T06:25:03.598Z,95812.16
2022-11-29T06:27:45.702Z,95826.63
2022-11-29T06:30:15.925Z,95829.22
2022-11-29T06:32:51.466Z,95836.97
2022-11-29T06:35:43.810Z,95832.28
2022-11-29T06:38:18.098Z,95832.06
2022-11-29T06:40:46.179Z,95838.69
2022-11-29T06:43:14.326Z,95846.31
2022-11-29T06:45:49.826Z,95854.44
2022-11-29T06:48:22.891Z,95849.72
2022-11-29T06:50:59.145Z,95859.06
2022-11-29T06:53:37.214Z,95857.94
2022-11-29T06:56:13.717Z,95865.06
2022-11-29T06:58:50.923Z,95862.16
2022-11-29T07:01:29.961Z,95863.03
2022-11-29T07:04:12.706Z,95864.63
2022-11-29T07:06:42.114Z,95864.66
2022-11-29T07:09:14.241Z,95873.06
2022-11-29T07:11:42.944Z,95854.59
2022-11-29T07:14:11.161Z,95868.78
2022-11-29T07:16:47.921Z,95877.56
2022-11-29T07:19:25.788Z,95887.78
2022-11-29T07:22:02.380Z,95883.41
2022-11-29T07:24:42.977Z,95894.41
2022-11-29T07:27:19.705Z,95896.09
2022-11-29T07:30:03.557Z,95861.84
2022-11-29T07:32:48.841Z,95883.81
2022-11-29T07:35:25.035Z,95893.28
2022-11-29T07:38:03.450Z,95872.06
2022-11-29T07:40:37.779Z,95906.66
2022-11-29T07:43:20.418Z,95912.50
2022-11-29T07:45:47.947Z,95910.56
2022-11-29T07:48:17.917Z,95917.50
2022-11-29T07:50:45.831Z,95919.75
2022-11-29T07:53:17.272Z,95913.31
2022-11-29T07:55:45.205Z,95920.94
2022-11-29T07:58:13.650Z,95931.66
2022-11-29T08:00:41.854Z,95916.72
2022-11-29T08:03:10.146Z,95917.63
2022-11-29T08:05:38.005Z,95910.44
2022-11-29T08:08:05.783Z,95903.25
2022-11-29T08:10:35.420Z,95913.34
2022-11-29T08:13:02.881Z,95907.09
2022-11-29T08:15:30.442Z,95925.03
2022-11-29T08:17:57.901Z,95925.91
2022-11-29T08:20:25.383Z,95923.13
2022-11-29T08:22:57.120Z,95935.19
2022-11-29T08:25:25.016Z,95937.22
2022-11-29T08:27:54.457Z,95947.13
2022-11-29T08:30:23.162Z,95945.91
2022-11-29T08:32:51.795Z,95948.50
2022-11-29T08:35:21.065Z,95947.50
2022-11-29T08:37:48.955Z,95947.06
2022-11-29T08:40:17.542Z,95940.44
2022-11-29T08:42:45.055Z,95913.91
2022-11-29T08:45:14.071Z,95961.03
2022-11-29T08:47:42.300Z,95952.94
2022-11-29T08:50:12.316Z,95962.03
2022-11-29T08:52:59.630Z,95957.19
2022-11-29T08:55:31.575Z,95963.31
2022-11-29T08:58:02.855Z,95969.38
2022-11-29T09:00:31.971Z,95971.19
2022-11-29T09:03:19.983Z,95970.81
2022-11-29T09:05:47.455Z,95968.94
2022-11-29T09:08:15.626Z,95968.94
2022-11-29T09:10:43.746Z,95976.25
2022-11-29T09:13:11.754Z,95973.31
2022-11-29T09:15:43.414Z,95980.75
2022-11-29T09:18:11.291Z,95967.66
2022-11-29T09:20:38.738Z,95987.69
2022-11-29T09:23:06.212Z,95973.28
2022-11-29T09:25:33.670Z,95987.84
2022-11-29T09:28:02.967Z,95994.97
2022-11-29T09:30:31.340Z,95985.75
2022-11-29T09:33:02.479Z,95963.63
2022-11-29T09:35:30.085Z,95993.31
2022-11-29T09:37:57.494Z,96014.50
2022-11-29T09:40:32.404Z,96000.97
2022-11-29T09:43:07.275Z,96003.34
2022-11-29T09:45:39.352Z,96015.19
2022-11-29T09:48:27.214Z,95998.84
2022-11-29T09:51:00.609Z,96014.41
2022-11-29T09:53:44.954Z,96009.84
2022-11-29T09:56:19.314Z,96011.63
2022-11-29T09:58:50.776Z,96016.56
2022-11-29T10:01:22.939Z,96022.09
2022-11-29T10:03:55.250Z,96018.88
2022-11-29T10:06:26.587Z,96021.22
2022-11-29T10:09:01.430Z,96029.34
2022-11-29T10:11:34.029Z,96030.03
2022-11-29T10:14:09.106Z,95987.75
2022-11-29T10:16:44.134Z,96033.19
2022-11-29T10:19:20.506Z,96028.88
2022-11-29T10:21:57.102Z,96009.41
2022-11-29T10:24:27.859Z,96023.69
2022-11-29T10:26:55.355Z,96023.13
2022-11-29T10:29:24.153Z,96026.66
2022-11-29T10:31:54.944Z,96028.13
2022-11-29T10:34:26.314Z,96030.16
2022-11-29T10:36:59.323Z,96010.75
2022-11-29T10:39:34.630Z,96013.69
2022-11-29T10:42:04.915Z,96027.53
2022-11-29T10:44:34.085Z,96027.66
2022-11-29T10:47:07.822Z,95998.78
2022-11-29T10:49:40.600Z,96022.56
2022-11-29T10:52:18.953Z,96023.13
2022-11-29T10:54:48.373Z,96007.91
2022-11-29T10:57:18.307Z,96033.50
2022-11-29T11:00:00.393Z,96026.28
2022-11-29T11:02:28.620Z,96027.16
2022-11-29T11:04:57.689Z,96026.84
2022-11-29T11:07:28.233Z,95981.75
2022-11-29T11:09:58.011Z,96021.75
2022-11-29T11:12:28.090Z,96022.47
2022-11-29T11:15:15.938Z,96026.94
2022-11-29T11:17:58.405Z,96005.97
2022-11-29T11:20:30.036Z,96020.38
2022-11-29T11:23:00.165Z,96024.66
2022-11-29T11:25:30.758Z,96029.72
2022-11-29T11:27:59.157Z,96031.78
2022-11-29T11:30:29.454Z,96018.00
2022-11-29T11:33:18.979Z,96024.44
2022-11-29T11:36:02.498Z,96017.88
2022-11-29T11:38:30.622Z,96021.72
2022-11-29T11:41:20.275Z,96010.09
2022-11-29T11:43:57.363Z,96027.25
2022-11-29T11:46:45.042Z,96036.88
2022-11-29T11:49:13.580Z,96034.53
2022-11-29T11:51:44.906Z,96030.91
2022-11-29T11:54:15.588Z,96032.69
2022-11-29T11:56:43.485Z,96034.94
2022-11-29T11:59:19.360Z,96028.28
2022-11-29T12:01:47.127Z,96041.72
2022-11-29T12:04:18.644Z,96038.56
2022-11-29T12:06:51.548Z,96050.97
2022-11-29T12:09:28.139Z,96023.13
2022-11-29T12:12:04.140Z,96049.63
2022-11-29T12:14:41.322Z,96043.00
2022-11-29T12:17:19.918Z,96049.63
2022-11-29T12:19:58.867Z,96045.59
2022-11-29T12:22:34.993Z,96049.31
2022-11-29T12:25:07.060Z,96042.19
2022-11-29T12:27:34.591Z,96053.69
2022-11-29T12:30:02.135Z,96050.53
2022-11-29T12:32:48.441Z,96048.97
2022-11-29T12:35:39.107Z,96048.06
2022-11-29T12:38:20.816Z,96062.38
2022-11-29T12:40:53.817Z,96066.09
2022-11-29T12:43:32.547Z,96071.41
2022-11-29T12:46:08.496Z,96069.94
2022-11-29T12:48:48.803Z,96065.53
2022-11-29T12:51:26.783Z,96069.47
2022-11-29T12:54:22.486Z,96078.97
2022-11-29T12:56:59.186Z,96077.41
2022-11-29T12:59:41.774Z,96075.34
2022-11-29T13:02:25.185Z,96067.69
2022-11-29T13:05:00.628Z,96076.03
2022-11-29T13:07:43.459Z,96078.97
2022-11-29T13:10:35.467Z,96086.31
2022-11-29T13:13:12.620Z,96070.38
2022-11-29T13:15:45.695Z,96080.41
2022-11-29T13:18:22.360Z,96082.00
2022-11-29T13:20:58.771Z,96084.13
2022-11-29T13:23:45.836Z,96085.72
2022-11-29T13:26:23.783Z,96071.53
2022-11-29T13:28:51.827Z,96097.34
2022-11-29T13:31:21.270Z,96088.88
2022-11-29T13:33:57.759Z,96076.28
2022-11-29T13:36:35.035Z,96078.66
2022-11-29T13:39:12.245Z,96090.03
2022-11-29T13:41:49.972Z,96094.88
2022-11-29T13:44:23.741Z,96085.31
2022-11-29T13:47:03.146Z,96089.91
2022-11-29T13:49:55.901Z,96095.44
2022-11-29T13:52:38.839Z,96078.97
2022-11-29T13:55:18.253Z,96097.03
2022-11-29T14:00:50.954Z,96092.50
2022-11-29T14:03:32.470Z,96102.78
2022-11-29T14:06:11.750Z,96101.31
2022-11-29T14:09:10.728Z,96102.53
2022-11-29T14:11:33.710Z,96097.13
2022-11-29T14:14:07.770Z,96102.56
2022-11-29T14:16:39.139Z,96096.94
2022-11-29T14:19:21.087Z,96099.63
2022-11-29T14:22:31.289Z,96106.84
2022-11-29T14:25:43.358Z,96103.13
2022-11-29T14:28:29.497Z,96093.97
2022-11-29T14:31:01.369Z,96121.63
2022-11-29T14:33:43.760Z,96118.78
2022-11-29T14:36:39.352Z,96116.06
2022-11-29T14:39:25.158Z,96122.41
2022-11-29T14:42:02.171Z,96095.41
2022-11-29T14:44:31.957Z,96123.53
2022-11-29T14:47:07.460Z,96127.47
2022-11-29T14:49:41.234Z,96129.50
2022-11-29T14:52:17.287Z,96134.69
2022-11-29T14:55:09.663Z,96126.22
2022-11-29T14:58:06.083Z,96136.91
2022-11-29T15:00:43.870Z,96126.41
2022-11-29T15:03:19.631Z,96138.50
2022-11-29T15:05:51.715Z,96141.75
2022-11-29T15:08:33.565Z,96133.09
2022-11-29T15:11:05.559Z,96139.81
2022-11-29T15:13:34.697Z,96141.41
2022-11-29T15:16:21.762Z,96139.69
2022-11-29T15:19:07.967Z,96138.16
2022-11-29T15:21:43.479Z,96140.19
2022-11-29T15:24:13.268Z,96141.41
2022-11-29T15:26:55.837Z,96137.09
2022-11-29T15:29:23.769Z,96141.94
2022-11-29T15:31:54.546Z,96142.13
2022-11-29T15:34:32.137Z,96139.72
2022-11-29T15:36:59.732Z,96144.72
2022-11-29T15:39:32.671Z,96143.63
2022-11-29T15:42:04.953Z,96147.66
2022-11-29T15:44:35.434Z,96147.31
2022-11-29T15:47:16.927Z,96140.75
2022-11-29T15:49:45.691Z,96150.56
2022-11-29T15:52:20.647Z,96155.88
2022-11-29T15:54:52.100Z,96149.69
2022-11-29T15:57:25.702Z,96162.63
2022-11-29T15:59:56.227Z,96158.47
2022-11-29T16:02:27.598Z,96170.19
2022-11-29T16:05:02.314Z,96170.06
2022-11-29T16:07:32.186Z,96170.84
2022-11-29T16:10:04.195Z,96171.66
2022-11-29T16:12:31.666Z,96169.63
2022-11-29T16:15:01.576Z,96152.13
2022-11-29T16:17:31.412Z,96174.66
2022-11-29T16:20:23.381Z,96173.66
2022-11-29T16:23:05.158Z,96172.66
2022-11-29T16:25:37.622Z,96175.00
2022-11-29T16:28:05.866Z,96182.59
2022-11-29T16:30:33.673Z,96177.44
2022-11-29T16:33:03.306Z,96173.13
2022-11-29T16:35:33.655Z,96183.59
2022-11-29T16:38:04.936Z,96173.66
2022-11-29T16:40:34.359Z,96186.38
2022-11-29T16:43:20.229Z,96169.91
2022-11-29T16:45:47.761Z,96184.50
2022-11-29T16:48:29.351Z,96187.75
2022-11-29T16:51:24.669Z,96174.94
2022-11-29T16:53:53.421Z,96190.34
2022-11-29T16:56:23.559Z,96182.88
2022-11-29T16:59:20.710Z,96195.81
2022-11-29T17:01:41.961Z,96191.94
2022-11-29T17:04:09.770Z,96187.09
2022-11-29T17:06:38.851Z,96195.38
2022-11-29T17:09:06.557Z,96187.19
2022-11-29T17:11:34.544Z,96187.53
2022-11-29T17:14:01.992Z,96185.75
2022-11-29T17:16:29.459Z,96194.38
2022-11-29T17:18:56.918Z,96202.81
2022-11-29T17:21:26.101Z,96193.94
2022-11-29T17:23:55.174Z,96187.47
2022-11-29T17:26:25.158Z,96200.66
2022-11-29T17:28:53.058Z,96198.53
2022-11-29T17:31:22.424Z,96190.75
2022-11-29T17:33:50.039Z,96189.41
2022-11-29T17:36:20.399Z,96201.13
2022-11-29T17:38:48.734Z,96192.34
2022-11-29T17:41:20.782Z,96204.22
2022-11-29T17:43:48.238Z,96203.44
2022-11-29T17:46:18.575Z,96203.72
2022-11-29T17:48:46.325Z,96207.97
2022-11-29T17:51:43.548Z,96206.06
2022-11-29T17:54:04.214Z,96213.03
2022-11-29T17:56:33.792Z,96207.91
2022-11-29T17:59:03.178Z,96212.94
2022-11-29T18:01:33.077Z,96208.81
2022-11-29T18:04:02.618Z,96221.47
2022-11-29T18:06:31.820Z,96216.47
2022-11-29T18:09:00.482Z,96223.63
2022-11-29T18:11:29.956Z,96219.63
2022-11-29T18:13:59.395Z,96220.84
2022-11-29T18:16:29.118Z,96232.41
2022-11-29T18:18:58.093Z,96223.22
2022-11-29T18:21:26.306Z,96219.19
2022-11-29T18:23:54.189Z,96215.25
2022-11-29T18:26:23.795Z,96221.28
2022-11-29T18:28:51.594Z,96220.91
2022-11-29T18:31:21.884Z,96225.88
2022-11-29T18:33:51.030Z,96229.03
2022-11-29T18:36:21.085Z,96222.63
2022-11-29T18:38:49.259Z,96223.13
2022-11-29T18:41:18.999Z,96226.72
2022-11-29T18:43:47.051Z,96223.56
2022-11-29T18:46:16.202Z,96202.97
2022-11-29T18:48:46.277Z,96226.00
2022-11-29T18:51:16.186Z,96224.84
2022-11-29T18:53:44.470Z,96233.56
2022-11-29T18:56:15.518Z,96228.03
2022-11-29T18:58:44.003Z,96235.63
2022-11-29T19:01:13.201Z,96241.63
2022-11-29T19:03:43.396Z,96232.75
2022-11-29T19:06:13.743Z,96246.22
2022-11-29T19:08:41.775Z,96240.44
2022-11-29T19:11:10.351Z,96239.94
2022-11-29T19:13:38.471Z,96237.97
2022-11-29T19:16:08.423Z,96239.97
2022-11-29T19:18:36.289Z,96231.84
2022-11-29T19:21:05.138Z,96245.81
2022-11-29T19:23:34.043Z,96245.41
2022-11-29T19:26:05.182Z,96251.69
2022-11-29T19:28:32.862Z,96242.69
2022-11-29T19:31:00.368Z,96248.28
2022-11-29T19:33:27.858Z,96254.78
2022-11-29T19:35:55.277Z,96249.97
2022-11-29T19:38:22.680Z,96249.59
2022-11-29T19:40:51.454Z,96262.22
2022-11-29T19:43:18.885Z,96270.47
2022-11-29T19:45:46.423Z,96269.41
2022-11-29T19:48:14.096Z,96249.34
2022-11-29T19:50:41.516Z,96245.53
2022-11-29T19:53:10.186Z,96263.38
2022-11-29T19:55:43.716Z,96268.81
2022-11-29T19:58:12.929Z,96265.53
2022-11-29T20:00:40.363Z,96273.28
2022-11-29T20:03:07.836Z,96272.13
2022-11-29T20:05:35.321Z,96261.94
2022-11-29T20:08:02.803Z,96262.59
2022-11-29T20:10:30.407Z,96271.50
2022-11-29T20:12:57.817Z,96268.75
2022-11-29T20:15:26.736Z,96275.13
2022-11-29T20:17:54.204Z,96269.38
2022-11-29T20:20:21.852Z,96271.59
2022-11-29T20:22:49.362Z,96280.28
2022-11-29T20:25:16.904Z,96279.53
2022-11-29T20:27:44.304Z,96277.53
2022-11-29T20:30:13.038Z,96288.47
2022-11-29T20:32:42.198Z,96274.38
2022-11-29T20:35:10.810Z,96292.47
2022-11-29T20:38:00.486Z,96293.28
2022-11-29T20:40:36.516Z,96286.13
2022-11-29T20:43:14.585Z,96300.03
2022-11-29T20:45:42.574Z,96299.28
2022-11-29T20:48:18.636Z,96278.31
2022-11-29T20:50:53.075Z,96297.91
2022-11-29T20:53:32.743Z,96302.47
2022-11-29T20:56:00.301Z,96299.91
2022-11-29T20:58:27.783Z,96306.25
2022-11-29T21:00:55.764Z,96302.31
2022-11-29T21:03:25.444Z,96304.09
2022-11-29T21:05:54.380Z,96286.06
2022-11-29T21:08:22.868Z,96304.09
2022-11-29T21:10:51.173Z,96310.69
2022-11-29T21:13:20.152Z,96304.28
2022-11-29T21:15:48.423Z,96306.66
2022-11-29T21:18:23.036Z,96293.59
2022-11-29T21:21:03.282Z,96302.91
2022-11-29T21:23:39.026Z,96308.09
2022-11-29T21:26:11.475Z,96303.50
2022-11-29T21:28:45.035Z,96301.69
2022-11-29T21:31:13.399Z,96285.41
2022-11-29T21:33:41.393Z,96304.63
2022-11-29T21:36:11.927Z,96301.03
2022-11-29T21:38:39.486Z,96295.50
2022-11-29T21:41:07.079Z,96284.41
2022-11-29T21:44:04.303Z,96295.28
2022-11-29T21:46:22.077Z,96288.09
2022-11-29T21:48:51.378Z,96289.13
2022-11-29T21:51:20.494Z,96287.94
2022-11-29T21:53:48.081Z,96298.28
2022-11-29T21:56:15.609Z,96277.44
2022-11-29T21:58:43.117Z,96291.56
2022-11-29T22:01:13.218Z,96293.28
2022-11-29T22:03:41.976Z,96292.72
2022-11-29T22:06:11.318Z,96291.13
2022-11-29T22:08:42.235Z,96287.59
2022-11-29T22:11:11.380Z,96293.16
2022-11-29T22:14:00.746Z,96295.91
2022-11-29T22:16:28.951Z,96306.63
2022-11-29T22:18:56.533Z,96301.47
2022-11-29T22:21:24.099Z,96305.69
2022-11-29T22:23:54.016Z,96296.16
2022-11-29T22:26:21.439Z,96299.16
2022-11-29T22:28:48.921Z,96292.81
2022-11-29T22:31:16.434Z,96293.34
2022-11-29T22:33:43.997Z,96285.00
2022-11-29T22:36:13.567Z,96288.19
2022-11-29T22:38:41.352Z,96261.81
2022-11-29T22:41:12.619Z,96285.41
2022-11-29T22:43:43.557Z,96269.00
2022-11-29T22:46:13.382Z,96291.03
2022-11-29T22:48:42.143Z,96284.06
2022-11-29T22:51:11.490Z,96278.88
2022-11-29T22:53:40.833Z,96290.63
2022-11-29T22:56:11.665Z,96283.28
2022-11-29T22:58:39.238Z,96290.03
2022-11-29T23:01:09.349Z,96293.22
2022-11-29T23:03:37.567Z,96263.03
2022-11-29T23:06:07.112Z,96300.97
2022-11-29T23:08:34.879Z,96299.19
2022-11-29T23:11:04.726Z,96306.56
2022-11-29T23:13:35.158Z,96309.13
2022-11-29T23:16:03.920Z,96295.84
2022-11-29T23:18:31.808Z,96281.41
2022-11-29T23:21:02.446Z,96303.19
2022-11-29T23:23:29.986Z,96306.94
2022-11-29T23:25:57.661Z,96319.06
2022-11-29T23:28:25.750Z,96319.06
2022-11-29T23:30:54.641Z,96321.28
2022-11-29T23:33:23.182Z,96322.81
2022-11-29T23:35:50.953Z,96307.78
2022-11-29T23:38:19.062Z,96283.75
2022-11-29T23:40:46.477Z,96309.09
2022-11-29T23:43:13.894Z,96314.66
2022-11-29T23:45:41.859Z,96311.47
2022-11-29T23:48:10.671Z,96310.72
2022-11-29T23:50:38.115Z,96320.25
2022-11-29T23:53:05.935Z,96313.09
2022-11-29T23:55:33.381Z,96300.97
2022-11-29T23:58:01.520Z,96316.66
